Strona główna
METAR-TAF:

METAR-TAF

Lotnisko :

Port lotniczy Belgrad

Belgrad, Serbia

Szerokość geograficzna: 44-49N, Długość geograficzna: 020-17E, wysokość: 96 m

Aktualna obserwacja pogody

Raport powstał 10 minut temu, godzina 02:30 UTC
Wiatr 5 kt od południowo-południowy wschód
Temperatura 12°C
Wilgotność 94%
Ciśnienie 1006 hPa
Widzialność 10 km lub więcej
Brak chmur poniżej 1500 m i brak chmur cumulonimbus

METAR: LYBE 040230Z 16005KT CAVOK 12/11 Q1006 NOSIG

czas: 04:40 (02:40 UTC)

Prognoza

Raport powstał 3 godziny i 40 minut temu, godzina 23:00 UTC
Prognoza ważna od 04 godzina 00 UTC do 04 godzina 24 UTC
Wiatr 6 kt od południowo-południowy wschód
Widzialność 10 km lub więcej
Brak chmur poniżej 1500 m i brak chmur cumulonimbus
Przejściowo
od 04 godzina 02 UTC do 04 godzina 05 UTC
Widzialność: 3000 m
zamglenie
Przejściowo
od 04 godzina 11 UTC do 04 godzina 15 UTC
Wiatr 13 kt od południowy zachód

TAF: LYBE 032300Z 0400/0424 16006KT CAVOK TX26/0413Z TN10/0403Z TEMPO 0402/0405 3000 BR TEMPO 0411/0415 23013KT

Obserwacja i prognoza pogody dla ponad 4000 lotnisk (raport METAR i TAF).

Dostępne stacje oznaczono żółtymi i czerwonymi punktami na mapie.

Najedź kursorem aby zobaczyć nazwę stacji.

Kliknij aby zobaczyć obserwacje i prognozy pogody.

Aby zmienić mapę: kliknij na zielony przycisk z czarnym krzyżykiem, aby powiększyć; na zielony przycisk z myślnikiem, aby pomniejszyć; na zielone strzałki, aby przejść do map sąsiednich.


METAR-TAF: